createdAt,value
2018-12-26T00:02:25.687Z,21.15
2018-12-26T00:04:53.172Z,21.18
2018-12-26T00:07:20.806Z,21.19
2018-12-26T00:09:48.460Z,21.21
2018-12-26T00:12:16.028Z,21.23
2018-12-26T00:14:43.692Z,21.23
2018-12-26T00:17:11.304Z,21.25
2018-12-26T00:19:39.093Z,21.25
2018-12-26T00:22:06.673Z,21.26
2018-12-26T00:24:34.186Z,21.28
2018-12-26T00:27:01.871Z,21.29
2018-12-26T00:29:29.515Z,21.27
2018-12-26T00:31:57.192Z,21.28
2018-12-26T00:34:24.736Z,21.30
2018-12-26T00:36:52.391Z,21.30
2018-12-26T00:39:20.080Z,21.29
2018-12-26T00:41:47.735Z,21.30
2018-12-26T00:44:15.386Z,21.30
2018-12-26T00:46:43.074Z,21.31
2018-12-26T00:49:10.705Z,21.30
2018-12-26T00:51:38.304Z,21.31
2018-12-26T00:54:06.048Z,21.31
2018-12-26T00:56:33.610Z,21.32
2018-12-26T00:59:01.264Z,21.31
2018-12-26T01:01:28.916Z,21.31
2018-12-26T01:03:56.528Z,21.31
2018-12-26T01:06:24.259Z,21.31
2018-12-26T01:08:51.900Z,21.31
2018-12-26T01:11:19.535Z,21.30
2018-12-26T01:13:47.215Z,21.31
2018-12-26T01:16:15.008Z,21.31
2018-12-26T01:18:42.815Z,21.29
2018-12-26T01:21:10.622Z,21.30
2018-12-26T01:23:38.170Z,21.31
2018-12-26T01:26:06.682Z,21.29
2018-12-26T01:28:34.518Z,21.28
2018-12-26T01:31:02.092Z,21.28
2018-12-26T01:33:29.953Z,21.28
2018-12-26T01:35:58.769Z,21.28
2018-12-26T01:38:26.276Z,21.28
2018-12-26T01:40:53.964Z,21.27
2018-12-26T01:43:21.721Z,21.26
2018-12-26T01:45:49.482Z,21.27
2018-12-26T01:48:17.202Z,21.27
2018-12-26T01:50:44.865Z,21.28
2018-12-26T01:53:12.888Z,21.28
2018-12-26T01:55:41.342Z,21.26
2018-12-26T01:58:09.157Z,21.26
2018-12-26T02:00:36.797Z,21.27
2018-12-26T02:03:04.351Z,21.27
2018-12-26T02:05:32.388Z,21.27
2018-12-26T02:07:59.893Z,21.27
2018-12-26T02:10:27.472Z,21.26
2018-12-26T02:12:54.998Z,21.26
2018-12-26T02:15:22.667Z,21.25
2018-12-26T02:17:50.238Z,21.25
2018-12-26T02:20:17.983Z,21.25
2018-12-26T02:22:45.716Z,21.24
2018-12-26T02:25:13.357Z,21.25
2018-12-26T02:27:40.913Z,21.24
2018-12-26T02:30:08.532Z,21.24
2018-12-26T02:32:36.172Z,21.24
2018-12-26T02:35:03.808Z,21.24
2018-12-26T02:37:31.466Z,21.23
2018-12-26T02:39:59.076Z,21.23
2018-12-26T02:42:26.735Z,21.22
2018-12-26T02:44:54.377Z,21.21
2018-12-26T02:47:22.033Z,21.20
2018-12-26T02:49:49.724Z,21.21
2018-12-26T02:52:17.304Z,21.21
2018-12-26T02:54:44.962Z,21.20
2018-12-26T02:57:12.684Z,21.19
2018-12-26T02:59:40.306Z,21.19
2018-12-26T03:02:07.911Z,21.18
2018-12-26T03:04:35.676Z,21.18
2018-12-26T03:07:03.333Z,21.17
2018-12-26T03:09:30.988Z,21.16
2018-12-26T03:11:58.638Z,21.16
2018-12-26T03:14:26.236Z,21.16
2018-12-26T03:16:54.185Z,21.16
2018-12-26T03:19:21.696Z,21.15
2018-12-26T03:21:49.193Z,21.13
2018-12-26T03:24:16.798Z,21.12
2018-12-26T03:26:44.446Z,21.11
2018-12-26T03:29:12.082Z,21.11
2018-12-26T03:31:39.763Z,21.10
2018-12-26T03:34:07.332Z,21.09
2018-12-26T03:36:34.969Z,21.09
2018-12-26T03:39:03.587Z,21.08
2018-12-26T03:41:31.237Z,21.07
2018-12-26T03:43:58.777Z,21.07
2018-12-26T03:46:26.399Z,21.05
2018-12-26T03:48:54.035Z,21.04
2018-12-26T03:51:21.639Z,21.04
2018-12-26T03:53:49.143Z,21.04
2018-12-26T03:56:16.671Z,21.02
2018-12-26T03:58:44.190Z,21.01
2018-12-26T04:01:12.707Z,21.01
2018-12-26T04:03:40.300Z,21.00
2018-12-26T04:06:07.951Z,20.99
2018-12-26T04:08:35.596Z,20.97
2018-12-26T04:11:03.269Z,20.97
2018-12-26T04:13:30.858Z,20.97
2018-12-26T04:15:58.453Z,20.98
2018-12-26T04:18:26.123Z,20.96
2018-12-26T04:20:53.798Z,20.96
2018-12-26T04:23:21.382Z,20.94
2018-12-26T04:25:48.998Z,20.94
2018-12-26T04:28:16.692Z,20.94
2018-12-26T04:30:44.286Z,20.94
2018-12-26T04:33:11.944Z,20.93
2018-12-26T04:35:39.560Z,20.92
2018-12-26T04:38:07.240Z,20.91
2018-12-26T04:40:34.822Z,20.90
2018-12-26T04:43:02.500Z,20.89
2018-12-26T04:45:30.114Z,20.89
2018-12-26T04:47:57.758Z,20.90
2018-12-26T04:50:25.377Z,20.89
2018-12-26T04:52:52.997Z,20.88
2018-12-26T04:55:20.628Z,20.89
2018-12-26T04:57:48.386Z,20.87
2018-12-26T05:00:16.057Z,20.87
2018-12-26T05:02:43.745Z,20.87
2018-12-26T05:05:11.316Z,20.86
2018-12-26T05:07:38.957Z,20.86
2018-12-26T05:10:06.718Z,20.84
2018-12-26T05:12:34.254Z,20.85
2018-12-26T05:15:01.867Z,20.85
2018-12-26T05:17:29.499Z,20.86
2018-12-26T05:19:57.145Z,20.84
2018-12-26T05:22:24.806Z,20.83
2018-12-26T05:24:52.470Z,20.82
2018-12-26T05:27:20.082Z,20.82
2018-12-26T05:29:47.838Z,20.81
2018-12-26T05:32:15.501Z,20.82
2018-12-26T05:34:43.134Z,20.79
2018-12-26T05:37:10.802Z,20.79
2018-12-26T05:39:38.444Z,20.79
2018-12-26T05:42:06.130Z,20.78
2018-12-26T05:44:33.682Z,20.78
2018-12-26T05:47:01.330Z,20.77
2018-12-26T05:49:28.961Z,20.76
2018-12-26T05:51:56.548Z,20.77
2018-12-26T05:54:24.335Z,20.77
2018-12-26T05:56:52.015Z,20.77
2018-12-26T05:59:19.536Z,20.76
2018-12-26T06:01:47.202Z,20.74
2018-12-26T06:04:14.821Z,20.75
2018-12-26T06:06:42.404Z,20.75
2018-12-26T06:09:10.018Z,20.72
2018-12-26T06:11:37.674Z,20.72
2018-12-26T06:14:05.304Z,20.70
2018-12-26T06:16:33.072Z,20.71
2018-12-26T06:19:00.775Z,20.71
2018-12-26T06:21:28.474Z,20.69
2018-12-26T06:23:55.965Z,20.68
2018-12-26T06:26:23.573Z,20.67
2018-12-26T06:28:51.191Z,20.66
2018-12-26T06:31:18.837Z,20.65
2018-12-26T06:33:46.439Z,20.64
2018-12-26T06:36:14.101Z,20.64
2018-12-26T06:38:41.707Z,20.65
2018-12-26T06:41:09.369Z,20.64
2018-12-26T06:43:36.964Z,20.62
2018-12-26T06:46:04.601Z,20.62
2018-12-26T06:48:32.261Z,20.61
2018-12-26T06:50:59.915Z,20.59
2018-12-26T06:53:27.503Z,20.58
2018-12-26T06:55:55.131Z,20.58
2018-12-26T06:58:22.941Z,20.59
2018-12-26T07:00:50.430Z,20.62
2018-12-26T07:03:18.051Z,20.62
2018-12-26T07:05:45.904Z,20.61
2018-12-26T07:08:14.576Z,20.62
2018-12-26T07:10:42.087Z,20.63
2018-12-26T07:13:09.587Z,20.65
2018-12-26T07:15:37.265Z,20.67
2018-12-26T07:18:04.908Z,20.67
2018-12-26T07:20:32.511Z,20.71
2018-12-26T07:23:00.173Z,20.74
2018-12-26T07:25:27.790Z,20.79
2018-12-26T07:27:55.488Z,20.80
2018-12-26T07:30:23.040Z,20.82
2018-12-26T07:32:50.677Z,20.82
2018-12-26T07:35:18.452Z,20.84
2018-12-26T07:37:46.012Z,20.85
2018-12-26T07:40:13.762Z,20.87
2018-12-26T07:42:41.352Z,20.90
2018-12-26T07:45:09.026Z,20.92
2018-12-26T07:47:36.572Z,20.95
2018-12-26T07:50:05.886Z,20.96
